sensor_id;sensor_type;location;lat;lon;timestamp;P1;durP1;ratioP1;P2;durP2;ratioP2
823;SDS011;373;49.342;8.146;2023-11-21T00:02:21;7.88;;;3.10;;
823;SDS011;373;49.342;8.146;2023-11-21T00:04:48;5.60;;;3.00;;
823;SDS011;373;49.342;8.146;2023-11-21T00:07:15;6.88;;;3.00;;
823;SDS011;373;49.342;8.146;2023-11-21T00:09:44;2.97;;;2.28;;
823;SDS011;373;49.342;8.146;2023-11-21T00:12:11;3.88;;;2.72;;
823;SDS011;373;49.342;8.146;2023-11-21T00:14:39;5.30;;;2.45;;
823;SDS011;373;49.342;8.146;2023-11-21T00:17:06;6.72;;;2.63;;
823;SDS011;373;49.342;8.146;2023-11-21T00:19:33;3.88;;;2.22;;
823;SDS011;373;49.342;8.146;2023-11-21T00:22:00;4.30;;;2.15;;
823;SDS011;373;49.342;8.146;2023-11-21T00:24:27;6.00;;;2.50;;
823;SDS011;373;49.342;8.146;2023-11-21T00:26:56;6.32;;;2.42;;
823;SDS011;373;49.342;8.146;2023-11-21T00:29:24;4.47;;;2.28;;
823;SDS011;373;49.342;8.146;2023-11-21T00:31:51;4.85;;;2.53;;
823;SDS011;373;49.342;8.146;2023-11-21T00:34:18;6.03;;;2.40;;
823;SDS011;373;49.342;8.146;2023-11-21T00:36:46;4.15;;;2.28;;
823;SDS011;373;49.342;8.146;2023-11-21T00:39:13;4.28;;;2.50;;
823;SDS011;373;49.342;8.146;2023-11-21T00:41:40;4.85;;;2.13;;
823;SDS011;373;49.342;8.146;2023-11-21T00:44:11;4.30;;;2.20;;
823;SDS011;373;49.342;8.146;2023-11-21T00:46:38;4.82;;;2.05;;
823;SDS011;373;49.342;8.146;2023-11-21T00:49:05;6.45;;;2.10;;
823;SDS011;373;49.342;8.146;2023-11-21T00:51:33;5.20;;;2.38;;
823;SDS011;373;49.342;8.146;2023-11-21T00:54:01;4.65;;;2.28;;
823;SDS011;373;49.342;8.146;2023-11-21T00:56:28;3.38;;;2.08;;
823;SDS011;373;49.342;8.146;2023-11-21T00:58:56;4.85;;;2.50;;
823;SDS011;373;49.342;8.146;2023-11-21T01:01:24;4.90;;;2.58;;
823;SDS011;373;49.342;8.146;2023-11-21T01:03:52;4.20;;;2.55;;
823;SDS011;373;49.342;8.146;2023-11-21T01:06:19;4.82;;;2.92;;
823;SDS011;373;49.342;8.146;2023-11-21T01:08:47;4.75;;;2.60;;
823;SDS011;373;49.342;8.146;2023-11-21T01:11:14;3.38;;;2.28;;
823;SDS011;373;49.342;8.146;2023-11-21T01:13:42;3.70;;;2.20;;
823;SDS011;373;49.342;8.146;2023-11-21T01:16:10;4.43;;;2.15;;
823;SDS011;373;49.342;8.146;2023-11-21T01:18:38;6.75;;;2.50;;
823;SDS011;373;49.342;8.146;2023-11-21T06:08:04;0.80;;;0.80;;
823;SDS011;373;49.342;8.146;2023-11-21T06:11:13;2.55;;;0.93;;
823;SDS011;373;49.342;8.146;2023-11-21T06:13:53;2.10;;;0.90;;
823;SDS011;373;49.342;8.146;2023-11-21T06:16:20;1.30;;;1.20;;
823;SDS011;373;49.342;8.146;2023-11-21T06:18:50;1.98;;;1.20;;
823;SDS011;373;49.342;8.146;2023-11-21T06:21:17;1.30;;;1.20;;
823;SDS011;373;49.342;8.146;2023-11-21T06:23:46;0.95;;;0.80;;
823;SDS011;373;49.342;8.146;2023-11-21T06:26:13;0.70;;;0.70;;
823;SDS011;373;49.342;8.146;2023-11-21T06:28:40;0.80;;;0.80;;
823;SDS011;373;49.342;8.146;2023-11-21T06:31:07;0.70;;;0.70;;
823;SDS011;373;49.342;8.146;2023-11-21T06:33:36;0.73;;;0.73;;
823;SDS011;373;49.342;8.146;2023-11-21T06:36:03;0.90;;;0.90;;
823;SDS011;373;49.342;8.146;2023-11-21T06:38:31;1.00;;;1.00;;
823;SDS011;373;49.342;8.146;2023-11-21T06:41:00;1.35;;;1.23;;
823;SDS011;373;49.342;8.146;2023-11-21T06:43:29;0.70;;;0.70;;
823;SDS011;373;49.342;8.146;2023-11-21T06:45:57;0.52;;;0.50;;
823;SDS011;373;49.342;8.146;2023-11-21T06:48:24;1.27;;;0.93;;
823;SDS011;373;49.342;8.146;2023-11-21T06:50:51;0.90;;;0.73;;
823;SDS011;373;49.342;8.146;2023-11-21T06:53:19;0.75;;;0.75;;
823;SDS011;373;49.342;8.146;2023-11-21T06:55:46;0.85;;;0.70;;
823;SDS011;373;49.342;8.146;2023-11-21T06:58:14;0.70;;;0.70;;
823;SDS011;373;49.342;8.146;2023-11-21T07:00:41;2.17;;;0.60;;
823;SDS011;373;49.342;8.146;2023-11-21T07:03:12;1.25;;;0.63;;
823;SDS011;373;49.342;8.146;2023-11-21T07:05:39;0.50;;;0.50;;
823;SDS011;373;49.342;8.146;2023-11-21T07:08:06;0.90;;;0.52;;
823;SDS011;373;49.342;8.146;2023-11-21T07:10:33;1.70;;;0.65;;
823;SDS011;373;49.342;8.146;2023-11-21T07:13:01;0.80;;;0.70;;
823;SDS011;373;49.342;8.146;2023-11-21T07:15:30;0.80;;;0.80;;
823;SDS011;373;49.342;8.146;2023-11-21T07:17:58;1.77;;;1.13;;
823;SDS011;373;49.342;8.146;2023-11-21T07:20:25;1.02;;;0.80;;
823;SDS011;373;49.342;8.146;2023-11-21T07:22:52;0.65;;;0.65;;
823;SDS011;373;49.342;8.146;2023-11-21T07:25:26;2.30;;;1.13;;
823;SDS011;373;49.342;8.146;2023-11-21T07:28:20;1.05;;;0.95;;
823;SDS011;373;49.342;8.146;2023-11-21T07:30:58;1.33;;;0.98;;
823;SDS011;373;49.342;8.146;2023-11-21T07:39:43;2.28;;;1.10;;
823;SDS011;373;49.342;8.146;2023-11-21T07:41:26;2.53;;;1.30;;
823;SDS011;373;49.342;8.146;2023-11-21T07:47:29;1.52;;;1.30;;
823;SDS011;373;49.342;8.146;2023-11-21T07:50:42;1.63;;;1.08;;
823;SDS011;373;49.342;8.146;2023-11-21T07:53:12;1.60;;;1.27;;
823;SDS011;373;49.342;8.146;2023-11-21T07:56:21;1.30;;;1.00;;
823;SDS011;373;49.342;8.146;2023-11-21T07:58:49;1.77;;;1.55;;
823;SDS011;373;49.342;8.146;2023-11-21T08:01:19;2.55;;;2.10;;
823;SDS011;373;49.342;8.146;2023-11-21T08:04:11;2.30;;;1.63;;
823;SDS011;373;49.342;8.146;2023-11-21T08:07:03;2.28;;;1.63;;
823;SDS011;373;49.342;8.146;2023-11-21T08:22:16;2.58;;;1.80;;
823;SDS011;373;49.342;8.146;2023-11-21T08:24:43;3.47;;;2.00;;
823;SDS011;373;49.342;8.146;2023-11-21T08:27:12;1.73;;;1.20;;
823;SDS011;373;49.342;8.146;2023-11-21T08:29:40;1.90;;;1.48;;
823;SDS011;373;49.342;8.146;2023-11-21T08:32:07;2.03;;;1.50;;
823;SDS011;373;49.342;8.146;2023-11-21T08:34:35;2.58;;;1.13;;
823;SDS011;373;49.342;8.146;2023-11-21T08:37:02;2.00;;;1.58;;
823;SDS011;373;49.342;8.146;2023-11-21T08:39:32;4.93;;;1.50;;
823;SDS011;373;49.342;8.146;2023-11-21T08:41:59;1.25;;;1.10;;
823;SDS011;373;49.342;8.146;2023-11-21T08:44:26;1.75;;;1.65;;
823;SDS011;373;49.342;8.146;2023-11-21T08:46:53;1.50;;;1.40;;
823;SDS011;373;49.342;8.146;2023-11-21T08:49:20;1.50;;;1.40;;
823;SDS011;373;49.342;8.146;2023-11-21T08:51:47;1.38;;;1.27;;
823;SDS011;373;49.342;8.146;2023-11-21T08:54:14;1.58;;;1.48;;
823;SDS011;373;49.342;8.146;2023-11-21T08:56:42;1.60;;;1.50;;
823;SDS011;373;49.342;8.146;2023-11-21T08:59:10;2.05;;;1.45;;
823;SDS011;373;49.342;8.146;2023-11-21T09:01:40;2.10;;;1.90;;
823;SDS011;373;49.342;8.146;2023-11-21T09:04:07;1.77;;;1.58;;
823;SDS011;373;49.342;8.146;2023-11-21T09:06:34;1.85;;;1.52;;
823;SDS011;373;49.342;8.146;2023-11-21T09:09:01;1.63;;;1.52;;
823;SDS011;373;49.342;8.146;2023-11-21T09:11:30;2.47;;;2.13;;
823;SDS011;373;49.342;8.146;2023-11-21T09:14:00;2.17;;;1.98;;
823;SDS011;373;49.342;8.146;2023-11-21T09:16:28;2.05;;;1.95;;
823;SDS011;373;49.342;8.146;2023-11-21T09:18:55;2.58;;;2.08;;
823;SDS011;373;49.342;8.146;2023-11-21T09:21:22;2.00;;;1.80;;
823;SDS011;373;49.342;8.146;2023-11-21T09:23:50;1.98;;;1.75;;
823;SDS011;373;49.342;8.146;2023-11-21T09:26:18;1.58;;;1.48;;
823;SDS011;373;49.342;8.146;2023-11-21T09:28:45;3.08;;;1.90;;
823;SDS011;373;49.342;8.146;2023-11-21T09:31:14;1.50;;;1.40;;
823;SDS011;373;49.342;8.146;2023-11-21T09:33:42;1.77;;;1.67;;
823;SDS011;373;49.342;8.146;2023-11-21T09:36:11;1.80;;;1.70;;
823;SDS011;373;49.342;8.146;2023-11-21T09:38:39;2.13;;;1.73;;
823;SDS011;373;49.342;8.146;2023-11-21T09:41:09;3.03;;;1.70;;
823;SDS011;373;49.342;8.146;2023-11-21T09:43:43;1.70;;;1.60;;
823;SDS011;373;49.342;8.146;2023-11-21T09:46:12;3.28;;;2.00;;
823;SDS011;373;49.342;8.146;2023-11-21T09:48:47;1.55;;;1.45;;
823;SDS011;373;49.342;8.146;2023-11-21T09:51:18;3.08;;;2.70;;
823;SDS011;373;49.342;8.146;2023-11-21T09:53:48;2.28;;;2.00;;
823;SDS011;373;49.342;8.146;2023-11-21T09:56:18;1.73;;;1.63;;
823;SDS011;373;49.342;8.146;2023-11-21T09:58:50;1.40;;;1.30;;
823;SDS011;373;49.342;8.146;2023-11-21T10:01:19;1.65;;;1.55;;
823;SDS011;373;49.342;8.146;2023-11-21T10:03:48;1.70;;;1.60;;
823;SDS011;373;49.342;8.146;2023-11-21T10:06:15;1.73;;;1.63;;
823;SDS011;373;49.342;8.146;2023-11-21T10:08:45;1.17;;;1.02;;
823;SDS011;373;49.342;8.146;2023-11-21T10:11:14;1.20;;;1.10;;
823;SDS011;373;49.342;8.146;2023-11-21T10:13:43;0.90;;;0.90;;
823;SDS011;373;49.342;8.146;2023-11-21T10:16:13;1.20;;;1.10;;
823;SDS011;373;49.342;8.146;2023-11-21T10:18:43;1.92;;;1.45;;
823;SDS011;373;49.342;8.146;2023-11-21T10:21:11;1.58;;;1.42;;
823;SDS011;373;49.342;8.146;2023-11-21T10:23:39;1.50;;;1.40;;
823;SDS011;373;49.342;8.146;2023-11-21T10:26:06;3.70;;;1.63;;
823;SDS011;373;49.342;8.146;2023-11-21T10:28:36;1.77;;;1.60;;
823;SDS011;373;49.342;8.146;2023-11-21T10:31:06;1.05;;;0.95;;
823;SDS011;373;49.342;8.146;2023-11-21T10:33:34;1.42;;;1.33;;
823;SDS011;373;49.342;8.146;2023-11-21T10:36:03;1.27;;;1.15;;
823;SDS011;373;49.342;8.146;2023-11-21T10:38:33;1.33;;;1.23;;
823;SDS011;373;49.342;8.146;2023-11-21T10:41:09;1.98;;;1.30;;
823;SDS011;373;49.342;8.146;2023-11-21T10:43:40;1.38;;;1.23;;
823;SDS011;373;49.342;8.146;2023-11-21T10:46:09;2.08;;;1.30;;
823;SDS011;373;49.342;8.146;2023-11-21T10:48:36;1.52;;;1.30;;
823;SDS011;373;49.342;8.146;2023-11-21T10:51:07;1.65;;;1.55;;
823;SDS011;373;49.342;8.146;2023-11-21T10:53:38;3.25;;;1.35;;
823;SDS011;373;49.342;8.146;2023-11-21T10:56:06;1.40;;;1.30;;
823;SDS011;373;49.342;8.146;2023-11-21T10:58:39;1.20;;;1.20;;
823;SDS011;373;49.342;8.146;2023-11-21T11:01:06;1.02;;;1.02;;
823;SDS011;373;49.342;8.146;2023-11-21T11:03:37;1.65;;;1.30;;
823;SDS011;373;49.342;8.146;2023-11-21T11:06:05;1.15;;;0.98;;
823;SDS011;373;49.342;8.146;2023-11-21T11:08:36;1.00;;;0.80;;
823;SDS011;373;49.342;8.146;2023-11-21T11:11:04;2.83;;;0.93;;
823;SDS011;373;49.342;8.146;2023-11-21T11:13:32;1.08;;;0.88;;
823;SDS011;373;49.342;8.146;2023-11-21T11:15:59;1.08;;;0.95;;
823;SDS011;373;49.342;8.146;2023-11-21T11:18:28;0.65;;;0.65;;
823;SDS011;373;49.342;8.146;2023-11-21T11:20:56;0.75;;;0.73;;
823;SDS011;373;49.342;8.146;2023-11-21T11:23:32;0.88;;;0.88;;
823;SDS011;373;49.342;8.146;2023-11-21T11:26:12;2.03;;;0.80;;
823;SDS011;373;49.342;8.146;2023-11-21T11:28:51;0.98;;;0.70;;
823;SDS011;373;49.342;8.146;2023-11-21T11:31:29;1.95;;;1.20;;
823;SDS011;373;49.342;8.146;2023-11-21T11:34:06;0.85;;;0.70;;
823;SDS011;373;49.342;8.146;2023-11-21T11:36:44;0.80;;;0.50;;
823;SDS011;373;49.342;8.146;2023-11-21T11:39:28;0.50;;;0.50;;
823;SDS011;373;49.342;8.146;2023-11-21T11:41:56;1.02;;;0.60;;
823;SDS011;373;49.342;8.146;2023-11-21T11:47:16;0.98;;;0.70;;
823;SDS011;373;49.342;8.146;2023-11-21T11:50:05;1.13;;;0.80;;
823;SDS011;373;49.342;8.146;2023-11-21T11:52:39;1.70;;;0.82;;
823;SDS011;373;49.342;8.146;2023-11-21T11:55:10;0.55;;;0.55;;
823;SDS011;373;49.342;8.146;2023-11-21T11:57:39;1.35;;;0.90;;
823;SDS011;373;49.342;8.146;2023-11-21T12:00:08;1.15;;;0.70;;
823;SDS011;373;49.342;8.146;2023-11-21T12:02:41;1.38;;;0.98;;
823;SDS011;373;49.342;8.146;2023-11-21T12:05:10;0.73;;;0.73;;
823;SDS011;373;49.342;8.146;2023-11-21T12:07:39;0.93;;;0.60;;
823;SDS011;373;49.342;8.146;2023-11-21T12:10:20;0.70;;;0.70;;
823;SDS011;373;49.342;8.146;2023-11-21T12:12:50;0.85;;;0.60;;
823;SDS011;373;49.342;8.146;2023-11-21T12:15:19;0.90;;;0.60;;
823;SDS011;373;49.342;8.146;2023-11-21T12:17:46;1.10;;;0.70;;
823;SDS011;373;49.342;8.146;2023-11-21T12:20:15;1.67;;;0.60;;
823;SDS011;373;49.342;8.146;2023-11-21T12:22:45;0.60;;;0.60;;
823;SDS011;373;49.342;8.146;2023-11-21T12:25:13;0.88;;;0.70;;
823;SDS011;373;49.342;8.146;2023-11-21T12:27:45;2.13;;;0.70;;
823;SDS011;373;49.342;8.146;2023-11-21T12:30:15;1.58;;;0.82;;
823;SDS011;373;49.342;8.146;2023-11-21T12:32:43;1.08;;;0.77;;
823;SDS011;373;49.342;8.146;2023-11-21T12:35:12;1.95;;;0.88;;
823;SDS011;373;49.342;8.146;2023-11-21T12:37:40;0.60;;;0.60;;
823;SDS011;373;49.342;8.146;2023-11-21T12:40:09;0.57;;;0.57;;
823;SDS011;373;49.342;8.146;2023-11-21T12:42:39;2.17;;;0.80;;
823;SDS011;373;49.342;8.146;2023-11-21T12:45:18;1.52;;;0.77;;
823;SDS011;373;49.342;8.146;2023-11-21T12:47:46;2.30;;;1.02;;
823;SDS011;373;49.342;8.146;2023-11-21T12:50:14;2.35;;;0.85;;
823;SDS011;373;49.342;8.146;2023-11-21T12:52:42;1.42;;;0.85;;
823;SDS011;373;49.342;8.146;2023-11-21T12:55:13;1.33;;;1.02;;
823;SDS011;373;49.342;8.146;2023-11-21T12:57:42;1.33;;;0.90;;
823;SDS011;373;49.342;8.146;2023-11-21T13:00:12;1.65;;;1.42;;
823;SDS011;373;49.342;8.146;2023-11-21T13:02:52;2.03;;;1.08;;
823;SDS011;373;49.342;8.146;2023-11-21T13:05:26;1.10;;;0.82;;
823;SDS011;373;49.342;8.146;2023-11-21T13:07:58;2.55;;;1.50;;
823;SDS011;373;49.342;8.146;2023-11-21T13:10:33;2.53;;;1.50;;
823;SDS011;373;49.342;8.146;2023-11-21T13:13:02;3.25;;;1.35;;
823;SDS011;373;49.342;8.146;2023-11-21T13:15:34;1.50;;;1.10;;
823;SDS011;373;49.342;8.146;2023-11-21T13:18:06;1.90;;;1.27;;
823;SDS011;373;49.342;8.146;2023-11-21T13:20:36;2.10;;;1.27;;
823;SDS011;373;49.342;8.146;2023-11-21T13:23:07;2.72;;;1.27;;
823;SDS011;373;49.342;8.146;2023-11-21T13:25:36;1.20;;;1.10;;
823;SDS011;373;49.342;8.146;2023-11-21T13:28:04;2.42;;;0.80;;
823;SDS011;373;49.342;8.146;2023-11-21T13:30:31;1.50;;;1.00;;
823;SDS011;373;49.342;8.146;2023-11-21T13:33:01;3.92;;;1.48;;
823;SDS011;373;49.342;8.146;2023-11-21T13:35:32;1.80;;;1.27;;
823;SDS011;373;49.342;8.146;2023-11-21T13:38:04;3.15;;;2.47;;
823;SDS011;373;49.342;8.146;2023-11-21T13:40:32;4.07;;;3.03;;
823;SDS011;373;49.342;8.146;2023-11-21T13:43:08;4.13;;;2.17;;
823;SDS011;373;49.342;8.146;2023-11-21T13:45:35;4.57;;;1.40;;
823;SDS011;373;49.342;8.146;2023-11-21T13:48:06;2.70;;;1.40;;
823;SDS011;373;49.342;8.146;2023-11-21T13:50:35;2.63;;;1.48;;
823;SDS011;373;49.342;8.146;2023-11-21T13:53:02;1.67;;;1.40;;
823;SDS011;373;49.342;8.146;2023-11-21T13:55:43;2.92;;;1.42;;
823;SDS011;373;49.342;8.146;2023-11-21T13:58:11;1.40;;;1.23;;
823;SDS011;373;49.342;8.146;2023-11-21T14:00:43;2.65;;;1.55;;
823;SDS011;373;49.342;8.146;2023-11-21T14:03:12;2.80;;;1.38;;
823;SDS011;373;49.342;8.146;2023-11-21T14:05:46;4.00;;;1.58;;
823;SDS011;373;49.342;8.146;2023-11-21T14:08:17;2.67;;;2.05;;
823;SDS011;373;49.342;8.146;2023-11-21T14:10:46;2.65;;;1.60;;
823;SDS011;373;49.342;8.146;2023-11-21T14:13:16;2.05;;;1.38;;
823;SDS011;373;49.342;8.146;2023-11-21T14:15:43;4.13;;;1.60;;
823;SDS011;373;49.342;8.146;2023-11-21T14:18:17;2.17;;;1.80;;
823;SDS011;373;49.342;8.146;2023-11-21T14:20:52;2.00;;;1.42;;
823;SDS011;373;49.342;8.146;2023-11-21T14:23:20;2.22;;;1.40;;
823;SDS011;373;49.342;8.146;2023-11-21T14:25:48;2.35;;;1.70;;
823;SDS011;373;49.342;8.146;2023-11-21T14:28:16;4.68;;;1.75;;
823;SDS011;373;49.342;8.146;2023-11-21T14:30:44;2.88;;;2.42;;
823;SDS011;373;49.342;8.146;2023-11-21T14:33:11;2.55;;;2.35;;
823;SDS011;373;49.342;8.146;2023-11-21T14:35:40;3.47;;;2.28;;
823;SDS011;373;49.342;8.146;2023-11-21T14:38:08;4.13;;;1.80;;
823;SDS011;373;49.342;8.146;2023-11-21T14:40:35;3.33;;;2.10;;
823;SDS011;373;49.342;8.146;2023-11-21T14:43:03;3.15;;;2.03;;
823;SDS011;373;49.342;8.146;2023-11-21T14:45:31;4.80;;;2.63;;
823;SDS011;373;49.342;8.146;2023-11-21T14:47:59;3.22;;;2.35;;
823;SDS011;373;49.342;8.146;2023-11-21T14:50:32;3.67;;;2.22;;
823;SDS011;373;49.342;8.146;2023-11-21T14:53:24;3.47;;;2.28;;
823;SDS011;373;49.342;8.146;2023-11-21T14:56:08;4.38;;;2.67;;
823;SDS011;373;49.342;8.146;2023-11-21T14:58:35;3.25;;;2.20;;
823;SDS011;373;49.342;8.146;2023-11-21T15:01:04;3.15;;;2.08;;
823;SDS011;373;49.342;8.146;2023-11-21T15:03:31;4.78;;;2.05;;
823;SDS011;373;49.342;8.146;2023-11-21T15:06:11;3.33;;;1.85;;
823;SDS011;373;49.342;8.146;2023-11-21T15:08:53;3.22;;;1.92;;
823;SDS011;373;49.342;8.146;2023-11-21T15:11:43;2.95;;;2.03;;
823;SDS011;373;49.342;8.146;2023-11-21T15:14:09;3.67;;;2.80;;
823;SDS011;373;49.342;8.146;2023-11-21T15:16:40;3.67;;;2.63;;
823;SDS011;373;49.342;8.146;2023-11-21T15:19:10;4.18;;;2.78;;
823;SDS011;373;49.342;8.146;2023-11-21T15:21:43;4.75;;;3.10;;
823;SDS011;373;49.342;8.146;2023-11-21T15:24:12;3.92;;;2.72;;
823;SDS011;373;49.342;8.146;2023-11-21T15:26:39;3.47;;;2.90;;
823;SDS011;373;49.342;8.146;2023-11-21T15:29:06;4.85;;;3.45;;
823;SDS011;373;49.342;8.146;2023-11-21T15:31:34;6.28;;;4.63;;
823;SDS011;373;49.342;8.146;2023-11-21T15:34:02;7.18;;;3.42;;
823;SDS011;373;49.342;8.146;2023-11-21T15:36:32;3.92;;;2.92;;
823;SDS011;373;49.342;8.146;2023-11-21T15:38:59;4.78;;;3.03;;
823;SDS011;373;49.342;8.146;2023-11-21T15:41:27;3.50;;;3.13;;
823;SDS011;373;49.342;8.146;2023-11-21T15:43:54;3.45;;;3.15;;
823;SDS011;373;49.342;8.146;2023-11-21T15:46:22;3.25;;;2.85;;
823;SDS011;373;49.342;8.146;2023-11-21T15:48:49;5.82;;;3.80;;
823;SDS011;373;49.342;8.146;2023-11-21T15:51:19;4.88;;;3.42;;
823;SDS011;373;49.342;8.146;2023-11-21T15:53:47;4.85;;;3.17;;
823;SDS011;373;49.342;8.146;2023-11-21T15:56:14;4.07;;;3.10;;
823;SDS011;373;49.342;8.146;2023-11-21T15:58:44;6.55;;;3.20;;
823;SDS011;373;49.342;8.146;2023-11-21T16:01:12;3.42;;;3.13;;
823;SDS011;373;49.342;8.146;2023-11-21T16:03:39;4.30;;;3.90;;
823;SDS011;373;49.342;8.146;2023-11-21T16:06:06;4.80;;;3.42;;
823;SDS011;373;49.342;8.146;2023-11-21T16:08:35;6.10;;;4.05;;
823;SDS011;373;49.342;8.146;2023-11-21T16:11:03;4.97;;;4.15;;
823;SDS011;373;49.342;8.146;2023-11-21T16:13:31;4.18;;;3.72;;
823;SDS011;373;49.342;8.146;2023-11-21T16:16:00;6.85;;;4.18;;
823;SDS011;373;49.342;8.146;2023-11-21T16:18:28;4.90;;;4.03;;
823;SDS011;373;49.342;8.146;2023-11-21T16:20:55;5.85;;;4.22;;
823;SDS011;373;49.342;8.146;2023-11-21T16:23:21;4.82;;;3.78;;
823;SDS011;373;49.342;8.146;2023-11-21T16:25:48;6.10;;;4.32;;
823;SDS011;373;49.342;8.146;2023-11-21T16:28:20;7.43;;;4.32;;
823;SDS011;373;49.342;8.146;2023-11-21T16:30:48;5.95;;;4.22;;
823;SDS011;373;49.342;8.146;2023-11-21T16:33:17;7.53;;;4.70;;
823;SDS011;373;49.342;8.146;2023-11-21T16:35:44;8.57;;;5.25;;
823;SDS011;373;49.342;8.146;2023-11-21T16:38:13;5.70;;;4.45;;
823;SDS011;373;49.342;8.146;2023-11-21T16:40:41;7.35;;;5.28;;
823;SDS011;373;49.342;8.146;2023-11-21T16:43:10;4.80;;;4.18;;
823;SDS011;373;49.342;8.146;2023-11-21T16:45:37;7.53;;;4.35;;
823;SDS011;373;49.342;8.146;2023-11-21T16:48:04;5.55;;;4.25;;
823;SDS011;373;49.342;8.146;2023-11-21T16:50:34;6.32;;;4.78;;
823;SDS011;373;49.342;8.146;2023-11-21T16:53:02;6.50;;;4.53;;
823;SDS011;373;49.342;8.146;2023-11-21T16:55:29;6.28;;;4.60;;
823;SDS011;373;49.342;8.146;2023-11-21T16:57:56;11.38;;;5.40;;
823;SDS011;373;49.342;8.146;2023-11-21T17:00:23;5.88;;;4.50;;
823;SDS011;373;49.342;8.146;2023-11-21T17:02:50;6.00;;;5.03;;
823;SDS011;373;49.342;8.146;2023-11-21T17:05:17;6.63;;;5.43;;
823;SDS011;373;49.342;8.146;2023-11-21T17:07:46;6.05;;;4.70;;
823;SDS011;373;49.342;8.146;2023-11-21T17:10:14;8.90;;;5.32;;
823;SDS011;373;49.342;8.146;2023-11-21T17:12:41;5.75;;;5.10;;
823;SDS011;373;49.342;8.146;2023-11-21T17:15:09;6.45;;;5.18;;
823;SDS011;373;49.342;8.146;2023-11-21T17:17:36;6.85;;;5.47;;
823;SDS011;373;49.342;8.146;2023-11-21T17:20:04;6.38;;;4.88;;
823;SDS011;373;49.342;8.146;2023-11-21T17:22:36;6.38;;;5.25;;
823;SDS011;373;49.342;8.146;2023-11-21T17:25:07;7.93;;;5.80;;
823;SDS011;373;49.342;8.146;2023-11-21T17:27:35;7.00;;;5.57;;
823;SDS011;373;49.342;8.146;2023-11-21T17:30:02;7.68;;;6.43;;
823;SDS011;373;49.342;8.146;2023-11-21T17:32:31;7.22;;;6.18;;
823;SDS011;373;49.342;8.146;2023-11-21T17:34:58;9.50;;;6.65;;
823;SDS011;373;49.342;8.146;2023-11-21T17:37:25;10.27;;;6.50;;
823;SDS011;373;49.342;8.146;2023-11-21T17:39:53;8.63;;;6.38;;
823;SDS011;373;49.342;8.146;2023-11-21T17:42:22;8.63;;;5.80;;
823;SDS011;373;49.342;8.146;2023-11-21T17:44:49;7.93;;;6.43;;
823;SDS011;373;49.342;8.146;2023-11-21T17:47:16;7.05;;;5.57;;
823;SDS011;373;49.342;8.146;2023-11-21T17:49:44;9.52;;;5.82;;
823;SDS011;373;49.342;8.146;2023-11-21T17:52:11;7.43;;;6.10;;
823;SDS011;373;49.342;8.146;2023-11-21T17:54:39;7.10;;;6.13;;
823;SDS011;373;49.342;8.146;2023-11-21T17:57:07;8.35;;;6.43;;
823;SDS011;373;49.342;8.146;2023-11-21T17:59:37;9.18;;;6.88;;
823;SDS011;373;49.342;8.146;2023-11-21T18:02:05;8.10;;;6.50;;
823;SDS011;373;49.342;8.146;2023-11-21T18:04:32;8.88;;;5.93;;
823;SDS011;373;49.342;8.146;2023-11-21T18:07:00;9.68;;;7.10;;
823;SDS011;373;49.342;8.146;2023-11-21T18:09:29;7.38;;;6.68;;
823;SDS011;373;49.342;8.146;2023-11-21T18:11:56;9.07;;;6.18;;
823;SDS011;373;49.342;8.146;2023-11-21T18:14:23;11.77;;;6.72;;
823;SDS011;373;49.342;8.146;2023-11-21T18:16:52;8.10;;;6.60;;
823;SDS011;373;49.342;8.146;2023-11-21T18:19:19;8.68;;;6.05;;
823;SDS011;373;49.342;8.146;2023-11-21T18:21:46;8.50;;;5.75;;
823;SDS011;373;49.342;8.146;2023-11-21T18:24:13;7.57;;;5.60;;
823;SDS011;373;49.342;8.146;2023-11-21T18:26:40;7.13;;;6.30;;
823;SDS011;373;49.342;8.146;2023-11-21T18:29:07;8.27;;;6.25;;
823;SDS011;373;49.342;8.146;2023-11-21T18:31:34;8.48;;;6.25;;
823;SDS011;373;49.342;8.146;2023-11-21T18:34:03;7.20;;;5.82;;
823;SDS011;373;49.342;8.146;2023-11-21T18:36:31;8.95;;;6.25;;
823;SDS011;373;49.342;8.146;2023-11-21T18:38:59;8.90;;;6.72;;
823;SDS011;373;49.342;8.146;2023-11-21T18:41:26;9.25;;;6.63;;
823;SDS011;373;49.342;8.146;2023-11-21T18:43:53;9.45;;;7.15;;
823;SDS011;373;49.342;8.146;2023-11-21T18:46:20;9.52;;;7.43;;
823;SDS011;373;49.342;8.146;2023-11-21T18:48:47;7.63;;;6.57;;
823;SDS011;373;49.342;8.146;2023-11-21T18:51:16;6.75;;;6.05;;
823;SDS011;373;49.342;8.146;2023-11-21T18:53:43;7.03;;;6.32;;
823;SDS011;373;49.342;8.146;2023-11-21T18:56:18;8.80;;;6.63;;
823;SDS011;373;49.342;8.146;2023-11-21T18:58:46;9.23;;;7.30;;
823;SDS011;373;49.342;8.146;2023-11-21T19:01:16;9.43;;;6.95;;
823;SDS011;373;49.342;8.146;2023-11-21T19:03:50;8.40;;;7.60;;
823;SDS011;373;49.342;8.146;2023-11-21T19:06:19;9.23;;;7.35;;
823;SDS011;373;49.342;8.146;2023-11-21T19:08:47;8.82;;;7.35;;
823;SDS011;373;49.342;8.146;2023-11-21T19:11:14;9.15;;;8.27;;
823;SDS011;373;49.342;8.146;2023-11-21T19:13:41;11.75;;;7.80;;
823;SDS011;373;49.342;8.146;2023-11-21T19:16:08;10.40;;;7.95;;
823;SDS011;373;49.342;8.146;2023-11-21T19:18:35;10.02;;;7.70;;
823;SDS011;373;49.342;8.146;2023-11-21T19:21:03;9.77;;;8.52;;
823;SDS011;373;49.342;8.146;2023-11-21T19:23:31;11.73;;;8.23;;
823;SDS011;373;49.342;8.146;2023-11-21T19:25:59;9.15;;;8.23;;
823;SDS011;373;49.342;8.146;2023-11-21T19:28:26;11.63;;;8.35;;
823;SDS011;373;49.342;8.146;2023-11-21T19:30:53;8.57;;;7.65;;
823;SDS011;373;49.342;8.146;2023-11-21T19:33:21;10.82;;;8.27;;
823;SDS011;373;49.342;8.146;2023-11-21T19:35:49;10.90;;;7.82;;
823;SDS011;373;49.342;8.146;2023-11-21T19:38:16;10.23;;;7.45;;
823;SDS011;373;49.342;8.146;2023-11-21T19:40:46;8.85;;;7.88;;
823;SDS011;373;49.342;8.146;2023-11-21T19:43:13;9.27;;;7.35;;
823;SDS011;373;49.342;8.146;2023-11-21T19:45:40;12.93;;;8.75;;
823;SDS011;373;49.342;8.146;2023-11-21T19:48:07;8.65;;;7.32;;
823;SDS011;373;49.342;8.146;2023-11-21T19:50:34;8.32;;;7.40;;
823;SDS011;373;49.342;8.146;2023-11-21T19:53:01;10.35;;;8.77;;
823;SDS011;373;49.342;8.146;2023-11-21T19:55:29;9.63;;;7.53;;
823;SDS011;373;49.342;8.146;2023-11-21T19:57:58;11.38;;;9.05;;
823;SDS011;373;49.342;8.146;2023-11-21T20:00:27;11.68;;;8.27;;
823;SDS011;373;49.342;8.146;2023-11-21T20:02:54;11.80;;;8.55;;
823;SDS011;373;49.342;8.146;2023-11-21T20:05:21;13.93;;;9.10;;
823;SDS011;373;49.342;8.146;2023-11-21T20:07:48;9.82;;;8.60;;
823;SDS011;373;49.342;8.146;2023-11-21T20:10:15;10.68;;;8.82;;
823;SDS011;373;49.342;8.146;2023-11-21T20:12:43;9.82;;;8.35;;
823;SDS011;373;49.342;8.146;2023-11-21T20:15:12;10.93;;;8.45;;
823;SDS011;373;49.342;8.146;2023-11-21T20:17:39;9.95;;;8.95;;
823;SDS011;373;49.342;8.146;2023-11-21T20:20:09;11.75;;;8.95;;
823;SDS011;373;49.342;8.146;2023-11-21T20:22:41;13.00;;;9.02;;
823;SDS011;373;49.342;8.146;2023-11-21T20:25:11;9.48;;;8.07;;
823;SDS011;373;49.342;8.146;2023-11-21T20:27:39;11.32;;;9.20;;
823;SDS011;373;49.342;8.146;2023-11-21T20:30:06;10.75;;;9.05;;
823;SDS011;373;49.342;8.146;2023-11-21T20:32:36;9.48;;;6.82;;
823;SDS011;373;49.342;8.146;2023-11-21T20:35:03;12.63;;;7.95;;
823;SDS011;373;49.342;8.146;2023-11-21T20:37:31;10.80;;;7.28;;
823;SDS011;373;49.342;8.146;2023-11-21T20:39:59;8.85;;;7.20;;
823;SDS011;373;49.342;8.146;2023-11-21T20:42:29;7.95;;;6.72;;
823;SDS011;373;49.342;8.146;2023-11-21T20:44:56;8.85;;;7.00;;
823;SDS011;373;49.342;8.146;2023-11-21T20:47:24;9.77;;;7.18;;
823;SDS011;373;49.342;8.146;2023-11-21T20:49:52;9.15;;;7.68;;
823;SDS011;373;49.342;8.146;2023-11-21T20:52:23;10.88;;;6.97;;
823;SDS011;373;49.342;8.146;2023-11-21T20:54:51;7.43;;;6.50;;
823;SDS011;373;49.342;8.146;2023-11-21T20:57:18;10.20;;;7.53;;
823;SDS011;373;49.342;8.146;2023-11-21T20:59:45;9.40;;;6.72;;
823;SDS011;373;49.342;8.146;2023-11-21T21:02:13;9.70;;;7.45;;
823;SDS011;373;49.342;8.146;2023-11-21T21:04:40;10.18;;;7.18;;
823;SDS011;373;49.342;8.146;2023-11-21T21:07:10;11.82;;;8.50;;
823;SDS011;373;49.342;8.146;2023-11-21T21:09:37;10.98;;;8.82;;
823;SDS011;373;49.342;8.146;2023-11-21T21:12:05;12.00;;;9.50;;